createdAt,value
2023-04-05T00:00:32.244Z,0.74
2023-04-05T00:01:32.228Z,0.78
2023-04-05T00:02:32.830Z,0.76
2023-04-05T00:03:33.982Z,0.76
2023-04-05T00:04:34.140Z,0.76
2023-04-05T00:05:34.135Z,0.74
2023-04-05T00:06:34.102Z,0.71
2023-04-05T00:07:34.940Z,0.77
2023-04-05T00:08:35.654Z,0.78
2023-04-05T00:09:36.368Z,0.78
2023-04-05T00:10:37.090Z,0.76
2023-04-05T00:11:38.049Z,0.77
2023-04-05T00:12:38.547Z,0.78
2023-04-05T00:13:39.115Z,0.71
2023-04-05T00:14:40.233Z,0.85
2023-04-05T00:15:40.735Z,0.84
2023-04-05T00:16:41.573Z,0.82
2023-04-05T00:17:42.596Z,0.81
2023-04-05T00:18:42.612Z,0.84
2023-04-05T00:19:43.500Z,0.86
2023-04-05T00:20:44.245Z,0.73
2023-04-05T00:21:45.123Z,0.81
2023-04-05T00:22:45.418Z,0.85
2023-04-05T00:23:46.215Z,0.81
2023-04-05T00:24:47.192Z,0.85
2023-04-05T00:25:48.109Z,0.76
2023-04-05T00:26:48.605Z,0.85
2023-04-05T00:27:48.883Z,0.81
2023-04-05T00:28:49.812Z,0.88
2023-04-05T00:29:50.582Z,0.81
2023-04-05T00:30:51.679Z,0.84
2023-04-05T00:31:52.691Z,0.82
2023-04-05T00:32:53.708Z,0.81
2023-04-05T00:33:54.282Z,0.78
2023-04-05T00:34:54.374Z,0.78
2023-04-05T00:35:54.962Z,0.81
2023-04-05T00:36:55.821Z,0.77
2023-04-05T00:37:55.515Z,0.74
2023-04-05T00:38:56.042Z,0.68
2023-04-05T00:39:56.569Z,0.67
2023-04-05T00:40:57.452Z,0.63
2023-04-05T00:41:57.670Z,0.61
2023-04-05T00:42:57.972Z,0.63
2023-04-05T00:43:58.652Z,0.7
2023-04-05T00:44:58.944Z,0.59
2023-04-05T00:45:59.958Z,0.68
2023-04-05T00:47:00.681Z,0.59
2023-04-05T00:48:01.377Z,0.56
2023-04-05T00:49:02.388Z,0.61
2023-04-05T00:50:03.301Z,0.61
2023-04-05T00:51:03.619Z,0.49
2023-04-05T00:52:04.477Z,0.49
2023-04-05T00:53:05.186Z,0.52
2023-04-05T00:54:05.674Z,0.52
2023-04-05T00:55:06.386Z,0.49
2023-04-05T00:56:07.289Z,0.52
2023-04-05T00:57:07.993Z,0.52
2023-04-05T00:58:08.528Z,0.44
2023-04-05T00:59:09.157Z,0.47
2023-04-05T01:00:09.786Z,0.42
2023-04-05T01:01:10.541Z,0.42
2023-04-05T01:02:11.092Z,0.47
2023-04-05T01:03:11.751Z,0.45
2023-04-05T01:04:12.448Z,0.44
2023-04-05T01:05:13.060Z,0.39
2023-04-05T01:06:16.691Z,0.4
2023-04-05T01:07:15.398Z,0.45
2023-04-05T01:08:15.874Z,0.44
2023-04-05T01:09:16.566Z,0.36
2023-04-05T01:10:17.471Z,0.39
2023-04-05T01:11:18.208Z,0.42
2023-04-05T01:12:18.618Z,0.42
2023-04-05T01:13:19.725Z,0.3
2023-04-05T01:14:20.225Z,0.29
2023-04-05T01:15:20.905Z,0.24
2023-04-05T01:16:21.780Z,0.27
2023-04-05T01:17:22.233Z,0.29
2023-04-05T01:18:23.299Z,0.23
2023-04-05T01:19:23.985Z,0.24
2023-04-05T01:20:24.667Z,0.29
2023-04-05T01:21:25.353Z,0.24
2023-04-05T01:22:25.590Z,0.24
2023-04-05T01:23:25.870Z,0.19
2023-04-05T01:24:26.862Z,0.24
2023-04-05T01:25:27.634Z,0.27
2023-04-05T01:26:27.760Z,0.3
2023-04-05T01:27:28.102Z,0.27
2023-04-05T01:28:28.401Z,0.26
2023-04-05T01:29:29.098Z,0.27
2023-04-05T01:30:29.809Z,0.31
2023-04-05T01:31:30.492Z,0.24
2023-04-05T01:32:30.657Z,0.27
2023-04-05T01:33:31.052Z,0.23
2023-04-05T01:34:31.529Z,0.26
2023-04-05T01:35:31.810Z,0.26
2023-04-05T01:36:32.208Z,0.26
2023-04-05T01:37:32.936Z,0.3
2023-04-05T01:38:33.426Z,0.27
2023-04-05T01:39:33.918Z,0.26
2023-04-05T01:40:34.209Z,0.24
2023-04-05T01:41:35.262Z,0.19
2023-04-05T01:42:35.749Z,0.15
2023-04-05T01:43:35.833Z,0.18
2023-04-05T01:44:36.914Z,0.19
2023-04-05T01:45:37.184Z,0.23
2023-04-05T01:46:38.118Z,0.23
2023-04-05T01:47:38.725Z,0.2
2023-04-05T01:48:39.807Z,0.2
2023-04-05T01:49:40.506Z,0.15
2023-04-05T01:50:41.820Z,0.13
2023-04-05T01:51:42.696Z,0.11
2023-04-05T01:52:43.332Z,0.11
2023-04-05T01:53:44.074Z,0.15
2023-04-05T01:54:44.772Z,0.13
2023-04-05T01:55:45.282Z,0.16
2023-04-05T01:56:46.196Z,0.13
2023-04-05T01:57:46.696Z,0.08
2023-04-05T01:58:47.504Z,0.18
2023-04-05T01:59:48.157Z,0.11
2023-04-05T02:00:49.086Z,0.15
2023-04-05T02:01:48.897Z,0.16
2023-04-05T02:02:49.702Z,0.13
2023-04-05T02:03:50.363Z,0.2
2023-04-05T02:04:50.664Z,0.24
2023-04-05T02:05:51.161Z,0.16
2023-04-05T02:06:52.015Z,0.2
2023-04-05T02:07:52.532Z,0.16
2023-04-05T02:08:53.206Z,0.24
2023-04-05T02:09:53.696Z,0.2
2023-04-05T02:10:54.665Z,0.18
2023-04-05T02:11:55.835Z,0.23
2023-04-05T02:12:56.834Z,0.24
2023-04-05T02:13:56.758Z,0.23
2023-04-05T02:14:57.096Z,0.24
2023-04-05T02:15:58.261Z,0.24
2023-04-05T02:16:58.699Z,0.18
2023-04-05T02:17:59.648Z,0.24
2023-04-05T02:19:00.294Z,0.29
2023-04-05T02:20:00.986Z,0.27
2023-04-05T02:21:01.680Z,0.26
2023-04-05T02:22:02.383Z,0.27
2023-04-05T02:23:03.038Z,0.29
2023-04-05T02:24:03.522Z,0.29
2023-04-05T02:25:04.008Z,0.27
2023-04-05T02:26:04.607Z,0.3
2023-04-05T02:27:05.525Z,0.29
2023-04-05T02:28:05.816Z,0.3
2023-04-05T02:29:06.180Z,0.3
2023-04-05T02:30:06.682Z,0.33
2023-04-05T02:31:07.372Z,0.27
2023-04-05T02:32:08.503Z,0.29
2023-04-05T02:33:08.740Z,0.26
2023-04-05T02:34:08.858Z,0.23
2023-04-05T02:35:09.611Z,0.24
2023-04-05T02:36:10.447Z,0.2
2023-04-05T02:37:11.345Z,0.2
2023-04-05T02:38:12.416Z,0.18
2023-04-05T02:39:12.910Z,0.13
2023-04-05T02:40:13.194Z,0.13
2023-04-05T02:41:14.262Z,0.15
2023-04-05T02:42:15.022Z,0.01
2023-04-05T02:43:15.248Z,0.02
2023-04-05T02:44:15.724Z,0.02
2023-04-05T02:45:16.230Z,0.06
2023-04-05T02:46:16.807Z,0.11
2023-04-05T02:47:17.647Z,0.12
2023-04-05T02:48:18.609Z,0.01
2023-04-05T02:49:18.723Z,0.16
2023-04-05T02:50:19.233Z,0.06
2023-04-05T02:51:19.561Z,0.01
2023-04-05T02:52:20.258Z,0.09
2023-04-05T02:53:20.667Z,0.08
2023-04-05T02:54:21.563Z,0.08
2023-04-05T02:55:22.041Z,0.06
2023-04-05T02:56:22.962Z,0.08
2023-04-05T02:57:23.695Z,0.06
2023-04-05T02:58:24.219Z,0.01
2023-04-05T02:59:25.387Z,0
2023-04-05T03:00:26.214Z,-0.02
2023-04-05T03:01:27.216Z,-0.02
2023-04-05T03:02:27.707Z,-0.07
2023-04-05T03:03:29.002Z,-0.02
2023-04-05T03:04:28.716Z,0.06
2023-04-05T03:05:29.017Z,0.05
2023-04-05T03:06:30.117Z,0.09
2023-04-05T03:07:30.857Z,0.08
2023-04-05T03:08:31.596Z,0.09
2023-04-05T03:09:32.216Z,0.15
2023-04-05T03:10:32.918Z,0.06
2023-04-05T03:11:34.624Z,0.06
2023-04-05T03:12:34.259Z,0.02
2023-04-05T03:13:34.808Z,0.06
2023-04-05T03:14:35.686Z,0.11
2023-04-05T03:15:36.256Z,0.11
2023-04-05T03:16:40.443Z,0.15
2023-04-05T03:17:37.365Z,0.16
2023-04-05T03:18:38.242Z,0.16
2023-04-05T03:19:38.772Z,0.11
2023-04-05T03:20:39.856Z,0.18
2023-04-05T03:21:40.688Z,0.13
2023-04-05T03:22:41.369Z,0.09
2023-04-05T03:23:42.030Z,0.13
2023-04-05T03:24:42.554Z,0.12
2023-04-05T03:25:43.375Z,0.13
2023-04-05T03:26:42.866Z,0.19
2023-04-05T03:27:43.973Z,0.2
2023-04-05T03:28:44.658Z,0.19
2023-04-05T03:29:45.592Z,0.23
2023-04-05T03:30:46.501Z,0.23
2023-04-05T03:31:47.403Z,0.16
2023-04-05T03:32:47.674Z,0.23
2023-04-05T03:33:48.413Z,0.24
2023-04-05T03:34:48.929Z,0.18
2023-04-05T03:35:49.709Z,0.26
2023-04-05T03:36:49.784Z,0.19
2023-04-05T03:37:50.713Z,0.18
2023-04-05T03:38:51.649Z,0.2
2023-04-05T03:39:51.926Z,0.16
2023-04-05T03:40:52.411Z,0.16
2023-04-05T03:41:52.958Z,0.15
2023-04-05T03:42:54.168Z,0.15
2023-04-05T03:43:54.507Z,0.15
2023-04-05T03:44:55.226Z,0.15
2023-04-05T03:45:55.610Z,0.15
2023-04-05T03:46:56.216Z,0.18
2023-04-05T03:47:57.121Z,0.13
2023-04-05T03:48:56.965Z,0.09
2023-04-05T03:49:57.981Z,0.08
2023-04-05T03:50:58.693Z,0.05
2023-04-05T03:51:59.195Z,0.08
2023-04-05T03:52:59.909Z,0
2023-04-05T03:54:00.759Z,0.08
2023-04-05T03:55:01.054Z,0.02
2023-04-05T03:56:01.481Z,0.02
2023-04-05T03:57:02.007Z,0.08
2023-04-05T03:58:02.734Z,0.06
2023-04-05T03:59:03.522Z,-0.05
2023-04-05T04:00:04.386Z,-0.06
2023-04-05T04:01:04.495Z,0.01
2023-04-05T04:02:05.075Z,0
2023-04-05T04:03:05.331Z,0.01
2023-04-05T04:04:05.953Z,0.02
2023-04-05T04:05:07.028Z,-0.03
2023-04-05T04:06:07.259Z,-0.03
2023-04-05T04:07:07.612Z,0.01
2023-04-05T04:08:08.087Z,-0.15
2023-04-05T04:09:08.596Z,-0.09
2023-04-05T04:10:08.902Z,-0.18
2023-04-05T04:11:09.803Z,-0.12
2023-04-05T04:12:10.524Z,-0.09
2023-04-05T04:13:11.644Z,-0.12
2023-04-05T04:15:12.002Z,-0.24
2023-04-05T04:16:12.403Z,-0.21
2023-04-05T04:17:12.231Z,-0.27
2023-04-05T04:18:12.957Z,-0.2
2023-04-05T04:19:13.650Z,-0.2
2023-04-05T04:20:14.194Z,-0.23
2023-04-05T04:21:14.481Z,-0.3
2023-04-05T04:22:15.181Z,-0.26
2023-04-05T04:23:15.928Z,-0.13
2023-04-05T04:24:16.458Z,-0.33
2023-04-05T04:25:16.962Z,-0.23
2023-04-05T04:26:17.643Z,-0.17
2023-04-05T04:27:18.366Z,-0.24
2023-04-05T04:28:19.104Z,-0.21
2023-04-05T04:29:19.610Z,-0.28
2023-04-05T04:30:19.915Z,-0.23
2023-04-05T04:31:20.531Z,-0.13
2023-04-05T04:32:21.140Z,-0.23
2023-04-05T04:33:21.918Z,-0.18
2023-04-05T04:34:22.523Z,-0.18
2023-04-05T04:35:23.338Z,-0.2
2023-04-05T04:36:24.913Z,-0.09
2023-04-05T04:38:24.877Z,-0.18
2023-04-05T04:39:25.588Z,-0.15
2023-04-05T04:40:26.316Z,-0.12
2023-04-05T04:41:26.840Z,-0.18
2023-04-05T04:42:27.411Z,-0.21
2023-04-05T04:43:28.319Z,-0.23
2023-04-05T04:44:28.937Z,-0.18
2023-04-05T04:45:29.449Z,-0.23
2023-04-05T04:46:29.773Z,-0.24
2023-04-05T04:47:30.514Z,-0.21
2023-04-05T04:48:31.325Z,-0.17
2023-04-05T04:49:31.834Z,-0.17
2023-04-05T04:50:32.584Z,-0.21
2023-04-05T04:51:33.085Z,-0.26
2023-04-05T04:52:33.378Z,-0.23
2023-04-05T04:53:34.069Z,-0.23
2023-04-05T04:54:34.806Z,-0.27
2023-04-05T04:55:35.271Z,-0.1
2023-04-05T04:56:35.621Z,-0.17
2023-04-05T04:57:36.531Z,-0.07
2023-04-05T04:58:37.076Z,-0.15
2023-04-05T04:59:38.097Z,-0.09
2023-04-05T05:00:39.114Z,-0.13
2023-04-05T05:01:39.100Z,-0.12
2023-04-05T05:02:39.719Z,-0.21
2023-04-05T05:03:40.387Z,-0.21
2023-04-05T05:04:41.425Z,-0.07
2023-04-05T05:05:41.966Z,-0.17
2023-04-05T05:06:42.679Z,-0.12
2023-04-05T05:07:43.413Z,-0.21
2023-04-05T05:08:43.915Z,-0.15
2023-04-05T05:09:44.833Z,-0.12
2023-04-05T05:10:45.669Z,-0.09
2023-04-05T05:11:46.158Z,-0.27
2023-04-05T05:12:46.714Z,-0.24
2023-04-05T05:13:53.406Z,-0.18
2023-04-05T05:15:48.322Z,-0.2
2023-04-05T05:16:49.147Z,-0.2
2023-04-05T05:17:49.814Z,-0.12
2023-04-05T05:18:50.161Z,-0.15
2023-04-05T05:19:51.098Z,-0.13
2023-04-05T05:20:51.684Z,-0.17
2023-04-05T05:21:52.378Z,-0.15
2023-04-05T05:22:53.279Z,-0.2
2023-04-05T05:23:53.973Z,-0.09
2023-04-05T05:24:55.008Z,-0.17
2023-04-05T05:25:55.689Z,-0.15
2023-04-05T05:26:56.171Z,-0.12
2023-04-05T05:27:57.185Z,-0.1
2023-04-05T05:28:57.114Z,-0.02
2023-04-05T05:29:58.007Z,0.01
2023-04-05T05:30:58.800Z,-0.07
2023-04-05T05:31:59.404Z,-0.05
2023-04-05T05:32:59.647Z,-0.03
2023-04-05T05:34:00.644Z,-0.06
2023-04-05T05:35:01.042Z,0.02
2023-04-05T05:36:02.315Z,-0.02
2023-04-05T05:37:03.245Z,0
2023-04-05T05:38:03.434Z,0.06
2023-04-05T05:39:03.850Z,0.01
2023-04-05T05:40:04.770Z,0.06
2023-04-05T05:41:05.267Z,0.05
2023-04-05T05:42:05.984Z,0.15
2023-04-05T05:43:06.907Z,0.11
2023-04-05T05:44:07.736Z,0.11
2023-04-05T05:45:08.345Z,0.13
2023-04-05T05:46:08.795Z,0.13
2023-04-05T05:47:09.337Z,0.16
2023-04-05T05:48:10.010Z,0.16
2023-04-05T05:49:10.539Z,0.26
2023-04-05T05:50:11.486Z,0.27
2023-04-05T05:51:11.406Z,0.19
2023-04-05T05:52:12.238Z,0.33
2023-04-05T05:53:12.721Z,0.33
2023-04-05T05:54:13.015Z,0.27
2023-04-05T05:55:14.038Z,0.3
2023-04-05T05:56:14.537Z,0.39
2023-04-05T05:57:15.317Z,0.4
2023-04-05T05:58:15.867Z,0.47
2023-04-05T05:59:17.060Z,0.47
2023-04-05T06:00:17.736Z,0.48
2023-04-05T06:01:17.937Z,0.49
2023-04-05T06:02:18.498Z,0.61
2023-04-05T06:03:19.811Z,0.63
2023-04-05T06:04:20.194Z,0.59
2023-04-05T06:06:20.801Z,0.63
2023-04-05T06:07:21.518Z,0.67
2023-04-05T06:08:22.225Z,0.7
2023-04-05T06:09:22.944Z,0.74
2023-04-05T06:10:23.654Z,0.81
2023-04-05T06:11:24.426Z,0.84
2023-04-05T06:12:28.250Z,0.86
2023-04-05T06:13:25.445Z,0.92
2023-04-05T06:14:26.478Z,0.88
2023-04-05T06:15:27.295Z,1.04
2023-04-05T06:16:28.155Z,0.96
2023-04-05T06:17:28.320Z,1.03
2023-04-05T06:18:28.546Z,1.13
2023-04-05T06:19:29.039Z,1.13
2023-04-05T06:20:30.143Z,1.14
2023-04-05T06:21:30.363Z,1.28
2023-04-05T06:22:31.080Z,1.25
2023-04-05T06:23:31.423Z,1.28
2023-04-05T06:24:32.352Z,1.4
2023-04-05T06:25:32.936Z,1.63
2023-04-05T06:26:34.156Z,2.05
2023-04-05T06:27:34.110Z,2.69
2023-04-05T06:28:34.655Z,3.48
2023-04-05T06:29:35.199Z,4.1
2023-04-05T06:30:35.607Z,4.84
2023-04-05T06:31:36.516Z,5.46
2023-04-05T06:32:37.083Z,6.06
2023-04-05T06:33:37.499Z,6.39
2023-04-05T06:34:38.220Z,6.82
2023-04-05T06:35:38.902Z,7.03
2023-04-05T06:36:40.221Z,7.48
2023-04-05T06:37:40.932Z,7.85
2023-04-05T06:38:41.829Z,8.34
2023-04-05T06:39:42.311Z,8.61
2023-04-05T06:40:43.552Z,9.05
2023-04-05T06:41:43.784Z,9.47
2023-04-05T06:42:43.736Z,9.8
2023-04-05T06:43:44.459Z,10.13
2023-04-05T06:44:45.075Z,10.34
2023-04-05T06:45:45.589Z,10.38
2023-04-05T06:46:45.980Z,10.59
2023-04-05T06:47:46.862Z,10.65
2023-04-05T06:48:47.181Z,10.8
2023-04-05T06:49:48.158Z,10.94
2023-04-05T06:50:48.594Z,11.02
2023-04-05T06:51:48.509Z,11.05
2023-04-05T06:52:49.525Z,11.19
2023-04-05T06:53:50.167Z,11.48
2023-04-05T06:54:50.860Z,11.68
2023-04-05T06:55:51.689Z,11.71
2023-04-05T06:56:51.791Z,11.74
2023-04-05T06:57:52.362Z,11.83
2023-04-05T06:58:52.894Z,12.07
2023-04-05T06:59:54.125Z,12.15
2023-04-05T07:00:54.999Z,12.29
2023-04-05T07:01:55.852Z,12.2
2023-04-05T07:02:55.955Z,12.17
2023-04-05T07:03:56.174Z,12.15
2023-04-05T07:04:57.345Z,12.3
2023-04-05T07:05:58.003Z,12.2
2023-04-05T07:06:58.541Z,12.4
2023-04-05T07:07:59.040Z,12.32
2023-04-05T07:08:59.723Z,12.54
2023-04-05T07:10:00.547Z,12.54
2023-04-05T07:11:01.358Z,12.7
2023-04-05T07:12:02.275Z,12.87
2023-04-05T07:13:03.005Z,13.02
2023-04-05T07:14:03.525Z,13.26
2023-04-05T07:15:04.721Z,13.21
2023-04-05T07:16:05.059Z,13.31
2023-04-05T07:17:04.920Z,13.58
2023-04-05T07:18:05.722Z,13.73
2023-04-05T07:19:06.311Z,13.86
2023-04-05T07:20:07.095Z,13.97
2023-04-05T07:21:08.212Z,14.11
2023-04-05T07:22:08.378Z,14.23
2023-04-05T07:23:08.019Z,14.18
2023-04-05T07:24:08.503Z,14.05
2023-04-05T07:25:08.978Z,13.8
2023-04-05T07:26:09.475Z,13.55
2023-04-05T07:27:10.417Z,13.45
2023-04-05T07:28:11.755Z,13.37
2023-04-05T07:29:12.623Z,13.37
2023-04-05T07:30:13.256Z,13.31
2023-04-05T07:31:12.955Z,13.28
2023-04-05T07:32:13.845Z,13.17
2023-04-05T07:33:14.360Z,12.98
2023-04-05T07:34:15.265Z,12.83
2023-04-05T07:35:15.842Z,12.68
2023-04-05T07:36:16.487Z,12.68
2023-04-05T07:37:17.246Z,12.63
2023-04-05T07:38:17.473Z,12.95
2023-04-05T07:39:18.186Z,13.2
2023-04-05T07:40:18.706Z,13.39
2023-04-05T07:41:19.662Z,13.55
2023-04-05T07:42:19.568Z,13.7
2023-04-05T07:43:20.337Z,13.85
2023-04-05T07:44:21.266Z,14
2023-04-05T07:45:22.188Z,14.16
2023-04-05T07:46:22.842Z,14.12
2023-04-05T07:47:22.883Z,14.12
2023-04-05T07:48:23.491Z,14.23
2023-04-05T07:49:23.801Z,14.37
2023-04-05T07:50:24.968Z,14.26
2023-04-05T07:51:25.064Z,14.2
2023-04-05T07:52:26.012Z,14.3
2023-04-05T07:53:26.131Z,14.3
2023-04-05T07:54:26.050Z,14.15
2023-04-05T07:55:26.999Z,13.73
2023-04-05T07:56:27.809Z,13.71
2023-04-05T07:57:27.740Z,13.7
2023-04-05T07:58:28.863Z,13.65
2023-04-05T07:59:29.726Z,13.36
2023-04-05T08:00:30.058Z,13.12
2023-04-05T08:01:30.174Z,13.01
2023-04-05T08:02:31.082Z,12.8
2023-04-05T08:03:31.620Z,12.65
2023-04-05T08:04:31.823Z,12.36
2023-04-05T08:05:33.180Z,12.23
2023-04-05T08:06:33.728Z,12
2023-04-05T08:07:34.033Z,11.78
2023-04-05T08:08:34.532Z,11.56
2023-04-05T08:09:35.464Z,11.35
2023-04-05T08:10:36.156Z,11.25
2023-04-05T08:11:37.361Z,11.19
2023-04-05T08:12:39.522Z,11.31
2023-04-05T08:13:38.241Z,11.4
2023-04-05T08:14:38.769Z,11.37
2023-04-05T08:15:39.911Z,11.48
2023-04-05T08:17:41.018Z,11.99
2023-04-05T08:18:40.800Z,12.36
2023-04-05T08:19:41.524Z,12.76
2023-04-05T08:20:42.522Z,13.3
2023-04-05T08:21:42.788Z,13.43
2023-04-05T08:22:43.634Z,13.46
2023-04-05T08:23:44.581Z,13.26
2023-04-05T08:24:44.564Z,13.23
2023-04-05T08:25:48.327Z,13.08
2023-04-05T08:27:46.771Z,12.36
2023-04-05T08:28:47.548Z,12.03
2023-04-05T08:29:48.312Z,11.68
2023-04-05T08:30:49.540Z,11.59
2023-04-05T08:31:49.473Z,11.49
2023-04-05T08:32:49.623Z,11.65
2023-04-05T08:33:50.424Z,11.81
2023-04-05T08:34:50.584Z,12.05
2023-04-05T08:35:50.998Z,12.08
2023-04-05T08:36:54.297Z,12.08
2023-04-05T08:38:52.562Z,12.1
2023-04-05T08:39:54.118Z,12.05
2023-04-05T08:40:54.296Z,12.18
2023-04-05T08:41:54.412Z,12.15
2023-04-05T08:42:55.157Z,12.15
2023-04-05T08:43:56.070Z,12.02
2023-04-05T08:44:57.135Z,11.7
2023-04-05T08:45:57.447Z,11.53
2023-04-05T08:46:57.954Z,11.52
2023-04-05T08:47:58.613Z,11.38
2023-04-05T08:48:59.523Z,11.41
2023-04-05T08:50:00.469Z,11.38
2023-04-05T08:51:01.182Z,11.4
2023-04-05T08:52:02.060Z,11.25
2023-04-05T08:53:02.593Z,11.34
2023-04-05T08:54:03.503Z,11.33
2023-04-05T08:55:04.419Z,11.4
2023-04-05T08:56:04.150Z,11.63
2023-04-05T08:57:05.247Z,11.88
2023-04-05T08:58:06.221Z,12.08
2023-04-05T08:59:07.242Z,12.11
2023-04-05T09:00:08.167Z,12.1
2023-04-05T09:01:09.043Z,12.07
2023-04-05T09:02:08.947Z,12.08
2023-04-05T09:03:09.992Z,12.03
2023-04-05T09:04:10.173Z,11.85
2023-04-05T09:05:10.424Z,11.95
2023-04-05T09:06:10.395Z,12.11
2023-04-05T09:07:10.826Z,12.25
2023-04-05T09:08:11.954Z,12.28
2023-04-05T09:09:12.658Z,12.29
2023-04-05T09:10:13.567Z,12.36
2023-04-05T09:11:14.684Z,12.51
2023-04-05T09:12:16.090Z,12.55
2023-04-05T09:14:16.558Z,12.4
2023-04-05T09:15:17.304Z,12.18
2023-04-05T09:16:18.174Z,11.89
2023-04-05T09:17:18.565Z,11.95
2023-04-05T09:18:31.595Z,12.03
2023-04-05T09:20:20.237Z,12.48
2023-04-05T09:21:21.147Z,12.8
2023-04-05T09:22:21.867Z,13.11
2023-04-05T09:23:21.799Z,13.37
2023-04-05T09:24:22.708Z,13.43
2023-04-05T09:25:23.623Z,13.62
2023-04-05T09:26:24.347Z,13.78
2023-04-05T09:27:25.757Z,13.78
2023-04-05T09:28:26.461Z,14.03
2023-04-05T09:29:27.222Z,13.7
2023-04-05T09:30:27.796Z,13.62
2023-04-05T09:31:28.262Z,13.8
2023-04-05T09:32:28.674Z,13.21
2023-04-05T09:33:29.428Z,12.75
2023-04-05T09:34:29.534Z,12.37
2023-04-05T09:35:30.166Z,12.11
2023-04-05T09:36:31.325Z,11.6
2023-04-05T09:37:32.212Z,11.37
2023-04-05T09:38:32.242Z,11.16
2023-04-05T09:39:33.075Z,10.9
2023-04-05T09:40:33.788Z,10.51
2023-04-05T09:41:34.440Z,9.94
2023-04-05T09:42:34.968Z,9.66
2023-04-05T09:43:34.881Z,9.42
2023-04-05T09:44:35.644Z,9.36
2023-04-05T09:45:36.580Z,9.3
2023-04-05T09:46:38.608Z,9.29
2023-04-05T09:48:38.539Z,9.36
2023-04-05T09:49:39.444Z,9.37
2023-04-05T09:50:39.602Z,9.56
2023-04-05T09:51:40.156Z,9.74
2023-04-05T09:52:40.896Z,9.76
2023-04-05T09:53:41.830Z,9.77
2023-04-05T09:54:42.547Z,10.39
2023-04-05T09:55:43.136Z,10.77
2023-04-05T09:56:43.833Z,11.34
2023-04-05T09:57:44.812Z,11.77
2023-04-05T09:58:45.570Z,12.17
2023-04-05T09:59:45.588Z,12.07
2023-04-05T10:00:46.629Z,12.33
2023-04-05T10:01:47.731Z,12.58
2023-04-05T10:02:48.285Z,12.86
2023-04-05T10:03:48.974Z,13.11
2023-04-05T10:04:48.696Z,13.23
2023-04-05T10:05:49.218Z,13.37
2023-04-05T10:06:50.436Z,13.79
2023-04-05T10:07:50.540Z,14.19
2023-04-05T10:08:50.829Z,14.45
2023-04-05T10:09:51.569Z,14.82
2023-04-05T10:10:52.357Z,15.04
2023-04-05T10:11:53.266Z,15.18
2023-04-05T10:12:54.219Z,15.43
2023-04-05T10:13:55.149Z,15.67
2023-04-05T10:14:55.340Z,15.7
2023-04-05T10:15:56.502Z,15.66
2023-04-05T10:16:57.534Z,15.47
2023-04-05T10:17:58.321Z,15.19
2023-04-05T10:18:59.277Z,15.15
2023-04-05T10:20:00.273Z,15.18
2023-04-05T10:21:00.528Z,15.45
2023-04-05T10:22:01.366Z,15.7
2023-04-05T10:23:01.654Z,15.75
2023-04-05T10:24:01.407Z,15.99
2023-04-05T10:25:02.150Z,16.02
2023-04-05T10:26:02.748Z,15.96
2023-04-05T10:27:03.425Z,16.08
2023-04-05T10:28:04.358Z,16.09
2023-04-05T10:29:04.931Z,16.32
2023-04-05T10:30:06.160Z,16.47
2023-04-05T10:31:06.991Z,16.12
2023-04-05T10:32:07.512Z,15.72
2023-04-05T10:33:08.321Z,15.3
2023-04-05T10:34:08.441Z,14.89
2023-04-05T10:35:09.171Z,14.56
2023-04-05T10:36:10.147Z,14.82
2023-04-05T10:37:10.362Z,14.97
2023-04-05T10:38:11.162Z,15.05
2023-04-05T10:39:12.185Z,15.17
2023-04-05T10:40:12.398Z,15.26
2023-04-05T10:41:13.002Z,15.48
2023-04-05T10:42:13.806Z,15.83
2023-04-05T10:43:14.848Z,16.18
2023-04-05T10:44:28.674Z,16.29
2023-04-05T10:46:17.008Z,16.12
2023-04-05T10:47:18.301Z,15.99
2023-04-05T10:48:18.524Z,15.91
2023-04-05T10:49:19.080Z,16.16
2023-04-05T10:50:19.540Z,16.26
2023-04-05T10:51:20.364Z,16.34
2023-04-05T10:52:21.356Z,16.31
2023-04-05T10:53:21.951Z,16.21
2023-04-05T10:54:23.025Z,15.76
2023-04-05T10:55:23.874Z,15.33
2023-04-05T10:56:24.510Z,15.17
2023-04-05T10:57:25.592Z,14.85
2023-04-05T10:58:25.863Z,14.51
2023-04-05T10:59:26.986Z,14.41
2023-04-05T11:00:27.120Z,14.48
2023-04-05T11:01:28.611Z,14.52
2023-04-05T11:02:28.861Z,14.53
2023-04-05T11:03:30.425Z,14.56
2023-04-05T11:04:30.080Z,14.41
2023-04-05T11:05:30.589Z,14.31
2023-04-05T11:06:31.327Z,14.2
2023-04-05T11:07:32.272Z,14.22
2023-04-05T11:08:32.618Z,14.33
2023-04-05T11:09:33.787Z,14.33
2023-04-05T11:10:34.540Z,14.34
2023-04-05T11:11:34.481Z,14.56
2023-04-05T11:12:35.185Z,14.99
2023-04-05T11:13:35.952Z,15.17
2023-04-05T11:14:36.437Z,15.39
2023-04-05T11:15:36.752Z,15.65
2023-04-05T11:16:37.958Z,15.83
2023-04-05T11:17:38.177Z,15.96
2023-04-05T11:19:38.684Z,16.02
2023-04-05T11:20:39.639Z,16.1
2023-04-05T11:21:40.589Z,16.22
2023-04-05T11:22:41.280Z,16.4
2023-04-05T11:23:41.815Z,16.62
2023-04-05T11:24:42.554Z,16.46
2023-04-05T11:25:43.070Z,16.31
2023-04-05T11:26:43.779Z,16.28
2023-04-05T11:27:44.617Z,16.03
2023-04-05T11:28:45.234Z,16
2023-04-05T11:29:45.150Z,15.83
2023-04-05T11:30:46.393Z,15.81
2023-04-05T11:31:46.574Z,15.75
2023-04-05T11:32:47.681Z,15.73
2023-04-05T11:33:57.799Z,15.67
2023-04-05T11:34:49.124Z,15.73
2023-04-05T11:35:50.061Z,15.66
2023-04-05T11:36:50.054Z,15.63
2023-04-05T11:37:50.560Z,15.43
2023-04-05T11:38:51.624Z,15.29
2023-04-05T11:39:52.150Z,15.1
2023-04-05T11:40:52.899Z,14.94
2023-04-05T11:41:53.802Z,14.62
2023-04-05T11:42:54.668Z,14.43
2023-04-05T11:43:55.172Z,14.51
2023-04-05T11:44:55.495Z,14.59
2023-04-05T11:45:56.494Z,14.86
2023-04-05T11:46:57.626Z,14.7
2023-04-05T11:47:57.739Z,14.52
2023-04-05T11:48:58.131Z,14.31
2023-04-05T11:49:58.442Z,14.2
2023-04-05T11:50:59.405Z,13.83
2023-04-05T11:51:59.906Z,13.71
2023-04-05T11:53:00.760Z,13.54
2023-04-05T11:54:00.720Z,13.33
2023-04-05T11:55:03.846Z,13.21
2023-04-05T11:56:02.777Z,13.19
2023-04-05T11:57:03.128Z,13.23
2023-04-05T11:58:04.022Z,13.45
2023-04-05T11:59:04.755Z,13.75
2023-04-05T12:00:05.618Z,14
2023-04-05T12:01:06.152Z,14.26
2023-04-05T12:02:07.091Z,14.28
2023-04-05T12:03:08.167Z,14.19
2023-04-05T12:04:08.128Z,14.03
2023-04-05T12:05:08.958Z,14.03
2023-04-05T12:06:10.065Z,14.23
2023-04-05T12:07:10.795Z,14.31
2023-04-05T12:08:11.312Z,14.53
2023-04-05T12:09:12.595Z,14.58
2023-04-05T12:10:13.142Z,14.77
2023-04-05T12:11:14.101Z,14.82
2023-04-05T12:12:14.417Z,14.92
2023-04-05T12:13:14.746Z,14.97
2023-04-05T12:14:15.928Z,15.07
2023-04-05T12:15:16.776Z,15.07
2023-04-05T12:16:17.717Z,15.04
2023-04-05T12:17:17.910Z,15.08
2023-04-05T12:18:18.696Z,15.14
2023-04-05T12:19:19.304Z,15.19
2023-04-05T12:20:20.222Z,15.29
2023-04-05T12:21:20.958Z,15.17
2023-04-05T12:22:21.892Z,15.26
2023-04-05T12:23:22.470Z,15.22
2023-04-05T12:24:23.609Z,15
2023-04-05T12:25:24.188Z,14.86
2023-04-05T12:26:25.331Z,14.82
2023-04-05T12:27:26.066Z,14.92
2023-04-05T12:28:26.978Z,15.1
2023-04-05T12:29:27.907Z,15.18
2023-04-05T12:30:28.602Z,15.19
2023-04-05T12:31:29.420Z,15.27
2023-04-05T12:32:29.574Z,15.37
2023-04-05T12:33:30.398Z,15.45
2023-04-05T12:34:31.291Z,15.44
2023-04-05T12:35:32.233Z,15.44
2023-04-05T12:36:32.414Z,15.33
2023-04-05T12:37:33.118Z,15.14
2023-04-05T12:38:33.964Z,15.11
2023-04-05T12:39:34.139Z,15.07
2023-04-05T12:40:34.228Z,15.12
2023-04-05T12:41:35.131Z,15.14
2023-04-05T12:42:36.116Z,15.07
2023-04-05T12:43:36.162Z,15.05
2023-04-05T12:44:36.919Z,15.15
2023-04-05T12:45:37.757Z,15.27
2023-04-05T12:46:38.606Z,15.29
2023-04-05T12:47:39.131Z,15.18
2023-04-05T12:48:40.339Z,15.17
2023-04-05T12:49:40.780Z,15.04
2023-04-05T12:50:41.091Z,14.89
2023-04-05T12:51:41.917Z,14.89
2023-04-05T12:52:42.528Z,14.87
2023-04-05T12:53:43.492Z,14.86
2023-04-05T12:54:44.243Z,14.79
2023-04-05T12:55:45.549Z,14.73
2023-04-05T12:56:45.505Z,14.77
2023-04-05T12:57:46.251Z,14.89
2023-04-05T12:58:46.431Z,15
2023-04-05T12:59:47.472Z,15.07
2023-04-05T13:00:48.419Z,15.14
2023-04-05T13:01:48.641Z,15.22
2023-04-05T13:02:49.649Z,15.32
2023-04-05T13:04:01.837Z,15.36
2023-04-05T13:05:51.745Z,15.57
2023-04-05T13:06:52.671Z,15.57
2023-04-05T13:07:53.374Z,15.6
2023-04-05T13:08:54.074Z,15.45
2023-04-05T13:09:54.519Z,15.43
2023-04-05T13:10:58.298Z,15.47
2023-04-05T13:11:55.524Z,15.47
2023-04-05T13:12:56.282Z,15.59
2023-04-05T13:13:57.202Z,15.73
2023-04-05T13:14:58.010Z,15.92
2023-04-05T13:15:58.878Z,16.13
2023-04-05T13:16:59.563Z,16.25
2023-04-05T13:18:00.440Z,16.41
2023-04-05T13:19:01.257Z,16.55
2023-04-05T13:20:01.920Z,16.61
2023-04-05T13:21:02.881Z,16.57
2023-04-05T13:22:03.499Z,16.54
2023-04-05T13:23:04.217Z,16.72
2023-04-05T13:24:04.918Z,16.74
2023-04-05T13:25:05.225Z,16.79
2023-04-05T13:26:06.214Z,16.66
2023-04-05T13:27:07.189Z,16.47
2023-04-05T13:28:07.710Z,16.43